Time;durP1;ratioP1;P1;durP2;ratioP2;P2;SDS_P1;SDS_P2;PMS_P1;PMS_P2;Temp;Humidity;BMP_temperature;BMP_pressure;BME280_temperature;BME280_humidity;BME280_pressure;Samples;Min_cycle;Max_cycle;Signal;HPM_P1;HPM_P2
2022/11/20 00:01:08;;;;;;;9.23;7.83;;;8.50;99.90;;;;;;5013634;28;20403;-71
2022/11/20 00:03:34;;;;;;;9.47;7.23;;;8.60;99.90;;;;;;5013669;28;20531;-70
2022/11/20 00:06:11;;;;;;;7.23;6.50;;;8.50;99.90;;;;;;5013084;28;20473;-71
2022/11/20 00:08:37;;;;;;;9.47;8.03;;;8.50;99.90;;;;;;5014034;28;20456;-70
2022/11/20 00:11:04;;;;;;;10.07;8.43;;;8.50;99.90;;;;;;5013988;28;20440;-71
2022/11/20 00:13:30;;;;;;;11.97;9.93;;;8.50;99.90;;;;;;5014350;28;20970;-70
2022/11/20 00:15:59;;;;;;;8.30;7.50;;;8.60;99.90;;;;;;5018216;28;20441;-71
2022/11/20 00:18:25;;;;;;;9.50;8.13;;;8.60;99.90;;;;;;4994068;28;20170;-71
2022/11/20 00:20:51;;;;;;;8.57;7.67;;;8.60;99.90;;;;;;4993299;28;20417;-71
2022/11/20 00:23:17;;;;;;;9.03;6.50;;;8.60;99.90;;;;;;4993764;28;20519;-70
2022/11/20 00:25:42;;;;;;;9.40;8.27;;;8.60;99.90;;;;;;4993674;28;20190;-71
2022/11/20 00:28:08;;;;;;;6.20;5.70;;;8.50;99.90;;;;;;4993955;28;20634;-70
2022/11/20 00:30:33;;;;;;;5.10;4.60;;;8.60;99.90;;;;;;4993679;28;20242;-70
2022/11/20 00:32:59;;;;;;;5.73;5.13;;;8.50;99.90;;;;;;4992606;28;20178;-71
2022/11/20 00:35:24;;;;;;;4.90;4.40;;;8.40;99.90;;;;;;4997922;28;20212;-71
2022/11/20 00:37:50;;;;;;;4.40;4.00;;;8.40;99.90;;;;;;5013084;28;20222;-71
2022/11/20 00:40:16;;;;;;;4.20;3.80;;;8.60;99.90;;;;;;5013067;28;20178;-71
2022/11/20 00:42:41;;;;;;;6.50;4.60;;;8.60;99.90;;;;;;5011871;28;20198;-70
2022/11/20 00:45:07;;;;;;;4.07;3.70;;;8.50;99.90;;;;;;5013187;28;20247;-71
2022/11/20 00:47:33;;;;;;;5.90;3.90;;;8.40;99.90;;;;;;5013316;28;20194;-70
2022/11/20 00:49:58;;;;;;;4.60;4.20;;;8.40;99.90;;;;;;5013085;28;20728;-70
2022/11/20 00:52:24;;;;;;;4.60;4.20;;;8.40;99.90;;;;;;5012602;28;20221;-71
2022/11/20 00:54:49;;;;;;;3.90;3.50;;;8.40;99.90;;;;;;5013173;28;20233;-70
2022/11/20 00:57:15;;;;;;;3.63;3.33;;;8.50;99.90;;;;;;5012711;28;20656;-71
2022/11/20 00:59:40;;;;;;;2.80;2.60;;;8.30;99.90;;;;;;5013272;28;20182;-71
2022/11/20 01:02:06;;;;;;;5.17;4.57;;;8.30;99.90;;;;;;5013045;28;20258;-71
2022/11/20 01:04:31;;;;;;;6.27;4.73;;;8.50;99.90;;;;;;5013512;28;20656;-71
2022/11/20 01:06:57;;;;;;;3.90;3.33;;;8.50;99.90;;;;;;5012570;28;20197;-71
2022/11/20 01:09:23;;;;;;;4.13;3.30;;;8.50;99.90;;;;;;5012480;28;20215;-71
2022/11/20 01:11:48;;;;;;;3.80;2.80;;;8.50;99.90;;;;;;5013460;28;20166;-71
2022/11/20 01:14:18;;;;;;;4.93;3.67;;;8.40;99.90;;;;;;5013409;28;20179;-71
2022/11/20 01:16:48;;;;;;;5.23;3.27;;;8.60;99.90;;;;;;5013495;28;20268;-71
2022/11/20 01:19:16;;;;;;;2.80;2.60;;;8.50;99.90;;;;;;5016628;28;20413;-71
2022/11/20 01:21:44;;;;;;;3.27;2.97;;;8.30;99.90;;;;;;5016105;28;20404;-71
2022/11/20 01:24:15;;;;;;;3.40;3.10;;;8.20;99.90;;;;;;5016462;28;20474;-71
2022/11/20 01:26:42;;;;;;;3.30;2.63;;;8.30;99.90;;;;;;5015221;28;20444;-71
2022/11/20 01:29:15;;;;;;;3.63;3.33;;;8.40;99.90;;;;;;5016697;28;20421;-71
2022/11/20 01:31:42;;;;;;;3.40;3.00;;;8.30;99.90;;;;;;5016387;28;20434;-71
2022/11/20 01:34:12;;;;;;;2.83;2.33;;;8.30;99.90;;;;;;5014989;28;20437;-70
2022/11/20 01:36:39;;;;;;;2.40;2.20;;;8.10;99.90;;;;;;5014777;28;20476;-71
2022/11/20 01:39:16;;;;;;;3.50;3.10;;;8.20;99.90;;;;;;5016385;28;20977;-71
2022/11/20 01:44:48;;;;;;;3.23;2.93;;;8.40;99.90;;;;;;5016481;28;20535;-71
2022/11/20 01:47:18;;;;;;;3.43;3.13;;;8.30;99.90;;;;;;5015947;28;20413;-71
2022/11/20 01:49:56;;;;;;;3.80;3.50;;;8.30;99.90;;;;;;5015882;28;20441;-71
2022/11/20 01:52:32;;;;;;;5.60;2.80;;;8.40;99.90;;;;;;5015619;28;20822;-71
2022/11/20 01:55:05;;;;;;;4.60;4.00;;;8.30;99.90;;;;;;5016052;28;20438;-71
2022/11/20 01:57:33;;;;;;;3.40;3.10;;;8.20;99.90;;;;;;5016138;28;20415;-70
2022/11/20 02:00:07;;;;;;;4.00;3.60;;;8.20;99.90;;;;;;5016020;28;20405;-70
2022/11/20 02:02:34;;;;;;;5.60;3.27;;;8.20;99.90;;;;;;5015912;28;20413;-70
2022/11/20 02:05:18;;;;;;;3.87;3.30;;;8.30;99.90;;;;;;5016263;28;20454;-70
2022/11/20 02:07:44;;;;;;;3.43;3.13;;;8.40;99.90;;;;;;5015471;28;20412;-71
2022/11/20 02:10:10;;;;;;;3.73;3.43;;;8.30;99.90;;;;;;5015637;28;20881;-71
2022/11/20 02:15:20;;;;;;;3.50;3.20;;;8.40;99.90;;;;;;5015914;28;20872;-71
2022/11/20 02:17:46;;;;;;;3.43;3.13;;;8.40;99.90;;;;;;5015623;28;20441;-72
2022/11/20 02:20:12;;;;;;;4.80;3.50;;;8.30;99.90;;;;;;5015480;28;20178;-72
2022/11/20 02:22:54;;;;;;;3.10;2.87;;;8.30;99.90;;;;;;5014971;28;20557;-72
2022/11/20 02:25:21;;;;;;;3.00;2.70;;;8.30;99.90;;;;;;5015645;28;20393;-72
2022/11/20 02:27:47;;;;;;;4.13;2.90;;;8.40;99.90;;;;;;5015100;28;20394;-72
2022/11/20 02:30:13;;;;;;;3.53;2.83;;;8.40;99.90;;;;;;5014673;28;20961;-72
2022/11/20 02:32:39;;;;;;;3.57;3.27;;;8.40;99.90;;;;;;5014179;28;20265;-73
2022/11/20 02:35:29;;;;;;;3.90;3.50;;;8.20;99.90;;;;;;5019118;28;20515;-72
2022/11/20 02:37:57;;;;;;;4.13;3.77;;;8.30;99.90;;;;;;5029944;28;20444;-72
2022/11/20 02:40:23;;;;;;;5.50;4.03;;;8.20;99.90;;;;;;5034929;28;20421;-72
2022/11/20 02:42:56;;;;;;;3.67;3.27;;;7.90;99.90;;;;;;5034918;28;20405;-72
2022/11/20 02:45:23;;;;;;;3.50;2.80;;;8.00;99.90;;;;;;5034812;28;20910;-72
2022/11/20 02:47:48;;;;;;;3.53;3.23;;;8.10;99.90;;;;;;5034772;28;20417;-72
2022/11/20 02:50:14;;;;;;;3.67;3.37;;;8.10;99.90;;;;;;5035268;28;20454;-72
2022/11/20 02:52:40;;;;;;;3.97;3.57;;;8.10;99.90;;;;;;5033310;28;20922;-72
2022/11/20 02:55:06;;;;;;;3.93;3.33;;;8.10;99.90;;;;;;5033299;28;20174;-72
2022/11/20 02:57:31;;;;;;;3.63;3.07;;;8.00;99.90;;;;;;5034536;28;20595;-72
2022/11/20 02:59:57;;;;;;;3.90;3.50;;;8.20;99.90;;;;;;5034531;28;20413;-72
2022/11/20 03:02:22;;;;;;;4.93;3.20;;;8.30;99.90;;;;;;5035047;28;20686;-72
2022/11/20 03:04:48;;;;;;;4.03;3.27;;;8.30;99.90;;;;;;5033943;28;20556;-72
2022/11/20 03:07:14;;;;;;;3.70;3.40;;;8.40;99.90;;;;;;5013768;28;20228;-72
2022/11/20 03:09:39;;;;;;;4.27;3.47;;;8.40;99.90;;;;;;5013312;28;20644;-72
2022/11/20 03:12:05;;;;;;;4.00;3.60;;;8.50;99.90;;;;;;5014802;28;20201;-72
2022/11/20 03:14:31;;;;;;;4.27;3.57;;;8.50;99.90;;;;;;5014635;28;20276;-72
2022/11/20 03:16:57;;;;;;;4.10;3.70;;;8.50;99.90;;;;;;5014395;28;20473;-71
2022/11/20 03:19:23;;;;;;;6.37;4.47;;;8.30;99.90;;;;;;5014532;28;20224;-72
2022/11/20 03:21:48;;;;;;;4.40;3.70;;;8.30;99.90;;;;;;5012983;28;20249;-71
2022/11/20 03:24:14;;;;;;;3.30;3.00;;;8.20;99.90;;;;;;5014190;28;20461;-72
2022/11/20 03:26:40;;;;;;;3.50;3.20;;;8.30;99.90;;;;;;5014254;28;20222;-72
2022/11/20 03:29:06;;;;;;;4.20;3.80;;;8.30;99.90;;;;;;5014536;28;20177;-71
2022/11/20 03:31:35;;;;;;;4.50;4.10;;;8.30;99.90;;;;;;5014288;28;20488;-72
2022/11/20 03:34:02;;;;;;;4.00;3.60;;;8.20;99.90;;;;;;5014536;28;20181;-71
2022/11/20 03:36:28;;;;;;;4.70;4.30;;;8.20;99.90;;;;;;5013129;28;20526;-71
2022/11/20 03:38:57;;;;;;;5.20;4.40;;;8.20;99.90;;;;;;5014229;28;20414;-71
2022/11/20 03:41:25;;;;;;;4.57;4.03;;;8.00;99.90;;;;;;5014188;28;20425;-72
2022/11/20 03:43:59;;;;;;;4.30;3.90;;;8.10;99.90;;;;;;5013962;28;20461;-71
2022/11/20 03:46:26;;;;;;;4.00;3.60;;;8.10;99.90;;;;;;5013943;28;20923;-71
2022/11/20 03:48:52;;;;;;;4.60;3.77;;;8.00;99.90;;;;;;5013901;28;20404;-71
2022/11/20 03:51:21;;;;;;;7.67;4.20;;;7.70;99.90;;;;;;5013898;28;20411;-71
2022/11/20 03:53:48;;;;;;;4.90;4.47;;;7.60;99.90;;;;;;5013915;28;20432;-71
2022/11/20 03:56:16;;;;;;;4.37;3.87;;;7.50;99.90;;;;;;5013778;28;20440;-72
2022/11/20 03:58:42;;;;;;;6.20;4.17;;;7.50;99.90;;;;;;5014330;28;20781;-72
2022/11/20 04:01:13;;;;;;;4.47;4.07;;;7.50;99.90;;;;;;5014679;28;20416;-72
2022/11/20 04:03:40;;;;;;;4.10;3.80;;;7.60;99.90;;;;;;5014158;28;20448;-72
2022/11/20 04:06:12;;;;;;;5.50;4.80;;;7.50;99.90;;;;;;5013706;28;20427;-72
2022/11/20 04:08:39;;;;;;;4.87;4.47;;;7.30;99.90;;;;;;5013826;28;20396;-71
2022/11/20 04:11:31;;;;;;;4.80;4.30;;;7.40;99.90;;;;;;5013920;28;20404;-72
2022/11/20 04:14:03;;;;;;;4.47;4.07;;;7.40;99.90;;;;;;5011257;28;20944;-72
2022/11/20 04:16:34;;;;;;;5.10;4.60;;;7.40;99.90;;;;;;5013700;28;20506;-71
2022/11/20 04:19:01;;;;;;;4.80;4.30;;;7.30;99.90;;;;;;5013510;28;20408;-71
2022/11/20 04:21:27;;;;;;;4.60;3.90;;;7.30;99.90;;;;;;5013004;28;20412;-71
2022/11/20 04:23:54;;;;;;;4.93;4.43;;;7.30;99.90;;;;;;5013249;28;20460;-71
2022/11/20 04:26:22;;;;;;;6.50;4.97;;;7.40;99.90;;;;;;5013366;28;20510;-72
2022/11/20 04:28:47;;;;;;;5.50;4.73;;;7.40;99.90;;;;;;5013722;28;20437;-71
2022/11/20 04:31:15;;;;;;;5.13;4.43;;;7.30;99.90;;;;;;5012135;28;20423;-71
2022/11/20 04:33:41;;;;;;;5.67;5.03;;;7.30;99.90;;;;;;5037687;22;20181;-72
2022/11/20 04:36:16;;;;;;;4.80;4.37;;;7.30;99.90;;;;;;5011543;28;20514;-72
2022/11/20 04:38:42;;;;;;;4.73;4.33;;;7.30;99.90;;;;;;5012135;28;20399;-72
2022/11/20 04:41:14;;;;;;;4.90;4.50;;;7.40;99.90;;;;;;5012383;28;20402;-73
2022/11/20 04:43:40;;;;;;;4.37;3.33;;;7.30;99.90;;;;;;5012447;28;20459;-72
2022/11/20 04:46:05;;;;;;;4.03;3.60;;;7.10;99.90;;;;;;5012456;28;20424;-72
2022/11/20 04:48:31;;;;;;;5.73;3.73;;;7.10;99.90;;;;;;5012452;28;20246;-72
2022/11/20 04:50:57;;;;;;;4.87;4.00;;;7.20;99.90;;;;;;5012351;28;20660;-72
2022/11/20 04:53:23;;;;;;;3.37;3.17;;;7.20;99.90;;;;;;5015892;28;20175;-73
2022/11/20 04:55:49;;;;;;;3.53;3.20;;;7.40;99.90;;;;;;5016376;28;20450;-72
2022/11/20 04:58:15;;;;;;;4.47;3.37;;;7.50;99.90;;;;;;5018884;28;20400;-73
2022/11/20 05:00:40;;;;;;;4.37;3.57;;;7.70;99.90;;;;;;5015019;28;20177;-73
2022/11/20 05:03:06;;;;;;;3.90;3.50;;;7.80;99.90;;;;;;5016495;28;20970;-72
2022/11/20 05:05:34;;;;;;;4.00;3.50;;;8.00;99.90;;;;;;5016436;28;20752;-72
2022/11/20 05:07:59;;;;;;;3.93;3.43;;;8.00;99.90;;;;;;5015877;28;20185;-73
2022/11/20 05:10:26;;;;;;;4.00;3.63;;;8.00;99.90;;;;;;5016869;28;20883;-73
2022/11/20 05:12:52;;;;;;;3.90;3.50;;;7.90;99.90;;;;;;5016429;28;20166;-73
2022/11/20 05:15:17;;;;;;;4.50;4.10;;;8.00;99.90;;;;;;5016253;28;20424;-73
2022/11/20 05:17:50;;;;;;;6.63;4.50;;;8.10;99.90;;;;;;5016745;28;20404;-73
2022/11/20 05:20:17;;;;;;;4.07;3.70;;;8.10;99.90;;;;;;5015036;28;20177;-73
2022/11/20 05:22:43;;;;;;;3.70;3.40;;;8.10;99.90;;;;;;5016101;28;20494;-73
2022/11/20 05:25:09;;;;;;;6.17;4.30;;;8.10;99.90;;;;;;5017381;28;20500;-73
2022/11/20 05:27:34;;;;;;;3.40;3.10;;;8.20;99.90;;;;;;5016326;28;20178;-73
2022/11/20 05:30:00;;;;;;;4.10;3.80;;;8.00;99.90;;;;;;5017186;28;20193;-73
2022/11/20 05:32:25;;;;;;;4.17;3.77;;;8.10;99.90;;;;;;5017301;28;20202;-73
2022/11/20 05:34:52;;;;;;;3.87;3.30;;;8.20;99.90;;;;;;5017404;28;20209;-72
2022/11/20 05:37:17;;;;;;;3.23;3.03;;;8.30;99.90;;;;;;5017935;28;20181;-73
2022/11/20 05:39:43;;;;;;;4.60;4.20;;;8.30;99.90;;;;;;5016114;28;20410;-73
2022/11/20 05:44:53;;;;;;;4.87;3.93;;;8.40;99.90;;;;;;5016184;28;20706;-73
2022/11/20 05:47:18;;;;;;;4.73;4.10;;;8.30;99.90;;;;;;5015641;28;20499;-72
2022/11/20 05:49:44;;;;;;;4.00;3.60;;;8.40;99.90;;;;;;5015747;28;20163;-72
2022/11/20 05:52:10;;;;;;;4.20;3.80;;;8.10;99.90;;;;;;5015691;28;20193;-72
2022/11/20 05:54:35;;;;;;;3.60;2.97;;;8.10;99.90;;;;;;5015742;28;20247;-72
2022/11/20 05:57:01;;;;;;;3.93;2.87;;;8.10;99.90;;;;;;5015647;28;20181;-72
2022/11/20 05:59:26;;;;;;;4.80;3.60;;;8.00;99.90;;;;;;5016045;28;20706;-72
2022/11/20 06:01:52;;;;;;;3.60;3.30;;;7.90;99.90;;;;;;5015468;28;20205;-72
2022/11/20 06:04:18;;;;;;;3.27;2.97;;;8.10;99.90;;;;;;5014865;28;20262;-72
2022/11/20 06:06:43;;;;;;;3.97;3.57;;;8.10;99.90;;;;;;5014704;28;20540;-73
2022/11/20 06:09:09;;;;;;;4.10;3.50;;;8.10;99.90;;;;;;5015337;28;20201;-72
2022/11/20 06:11:34;;;;;;;3.30;3.00;;;8.20;99.90;;;;;;5015164;28;20590;-73
2022/11/20 06:14:00;;;;;;;5.33;3.53;;;8.20;99.90;;;;;;5015121;28;20198;-72
2022/11/20 06:16:25;;;;;;;3.30;3.00;;;8.20;99.90;;;;;;5015837;28;20207;-73
2022/11/20 06:18:51;;;;;;;3.43;3.13;;;8.20;99.90;;;;;;5015076;28;20178;-73
2022/11/20 06:21:19;;;;;;;3.73;3.37;;;8.20;99.90;;;;;;5014700;28;20707;-73
2022/11/20 06:23:45;;;;;;;3.70;3.20;;;8.20;99.90;;;;;;5014546;28;20188;-71
2022/11/20 06:26:14;;;;;;;3.43;2.70;;;8.30;99.90;;;;;;5013627;28;20412;-73
2022/11/20 06:28:40;;;;;;;3.00;2.80;;;8.30;99.90;;;;;;5014860;28;20420;-73
2022/11/20 06:31:07;;;;;;;3.30;3.00;;;8.40;99.90;;;;;;5013422;28;20403;-73
2022/11/20 06:33:33;;;;;;;2.97;2.67;;;8.40;99.90;;;;;;5014805;28;20605;-73
2022/11/20 06:36:00;;;;;;;3.90;3.50;;;8.30;99.90;;;;;;5013213;28;20452;-73
2022/11/20 06:38:27;;;;;;;3.07;2.87;;;8.40;99.90;;;;;;5013536;28;20425;-74
2022/11/20 06:40:53;;;;;;;3.30;2.90;;;8.40;99.90;;;;;;5014720;28;20457;-73
2022/11/20 06:43:18;;;;;;;2.50;2.30;;;8.40;99.90;;;;;;5014374;28;20536;-73
2022/11/20 06:45:44;;;;;;;5.40;2.80;;;8.30;99.90;;;;;;5014603;28;20538;-73
2022/11/20 06:48:09;;;;;;;3.20;2.67;;;8.10;99.90;;;;;;5013458;28;20165;-73
2022/11/20 06:50:38;;;;;;;3.67;3.13;;;8.10;99.90;;;;;;5014656;28;20170;-73
2022/11/20 06:53:04;;;;;;;3.50;3.30;;;8.10;99.90;;;;;;5014105;28;20249;-73
2022/11/20 06:55:31;;;;;;;3.20;2.87;;;8.20;99.90;;;;;;5014375;28;20799;-73
2022/11/20 06:57:57;;;;;;;3.37;3.07;;;8.10;99.90;;;;;;5031149;28;20415;-73
2022/11/20 07:00:23;;;;;;;3.43;2.77;;;8.00;99.90;;;;;;5033966;28;20411;-73
2022/11/20 07:02:49;;;;;;;2.90;2.70;;;8.00;99.90;;;;;;5032734;28;20401;-73
2022/11/20 07:05:15;;;;;;;4.70;2.93;;;8.00;99.90;;;;;;5033613;28;20201;-73
2022/11/20 07:07:41;;;;;;;3.53;3.23;;;8.20;99.90;;;;;;5021597;28;20500;-73
2022/11/20 07:10:07;;;;;;;4.13;2.93;;;8.10;99.90;;;;;;5013983;28;20200;-72
2022/11/20 07:12:32;;;;;;;2.80;2.60;;;8.20;99.90;;;;;;5013887;28;20196;-73
2022/11/20 07:14:58;;;;;;;4.20;3.50;;;8.10;99.90;;;;;;5012819;28;20955;-73
2022/11/20 07:17:24;;;;;;;3.40;3.13;;;8.10;99.90;;;;;;5015515;28;20179;-73
2022/11/20 07:19:49;;;;;;;2.50;2.30;;;8.00;99.90;;;;;;5015598;28;20189;-73
2022/11/20 07:22:15;;;;;;;6.63;5.13;;;8.00;99.90;;;;;;5014751;28;20174;-72
2022/11/20 07:24:40;;;;;;;3.53;2.97;;;8.20;99.90;;;;;;5014482;28;20213;-72
2022/11/20 07:27:06;;;;;;;2.90;2.70;;;8.20;99.90;;;;;;5014213;28;20348;-73
2022/11/20 07:29:31;;;;;;;22.40;14.23;;;8.00;99.90;;;;;;5013782;28;20170;-72
2022/11/20 07:31:57;;;;;;;6.93;4.73;;;7.90;99.90;;;;;;5012588;28;20226;-72
2022/11/20 07:34:23;;;;;;;5.70;3.67;;;7.90;99.90;;;;;;5012566;28;20233;-72
2022/11/20 07:36:48;;;;;;;9.83;8.77;;;8.00;99.90;;;;;;5013143;28;20239;-72
2022/11/20 07:39:14;;;;;;;9.30;8.37;;;8.10;99.90;;;;;;5013665;28;20201;-73
2022/11/20 07:41:40;;;;;;;4.20;3.70;;;8.20;99.90;;;;;;5013796;28;20181;-73
2022/11/20 07:44:05;;;;;;;11.87;8.23;;;8.30;99.90;;;;;;5011977;28;20209;-73
2022/11/20 07:46:31;;;;;;;9.20;4.90;;;8.50;99.90;;;;;;5013545;28;20168;-72
2022/11/20 07:48:57;;;;;;;5.97;4.80;;;8.50;99.90;;;;;;5013568;28;20312;-73
2022/11/20 07:51:22;;;;;;;7.87;6.37;;;8.50;99.90;;;;;;5013088;28;20202;-73
2022/11/20 07:53:51;;;;;;;6.57;4.23;;;8.50;99.90;;;;;;5012837;28;20179;-72
2022/11/20 07:56:16;;;;;;;17.67;12.47;;;8.60;99.90;;;;;;5013042;28;20182;-72
2022/11/20 07:58:42;;;;;;;7.00;5.47;;;8.70;99.90;;;;;;5011683;28;20409;-73
2022/11/20 08:01:08;;;;;;;8.37;7.23;;;8.80;99.90;;;;;;5011433;28;20187;-73
2022/11/20 08:03:34;;;;;;;6.23;4.57;;;8.70;99.90;;;;;;5013006;28;20269;-73
2022/11/20 08:06:00;;;;;;;8.43;6.13;;;8.60;99.90;;;;;;5013826;28;20190;-73
2022/11/20 08:08:26;;;;;;;4.07;3.57;;;8.70;99.90;;;;;;5013119;28;20413;-73
2022/11/20 08:10:52;;;;;;;3.97;3.57;;;8.90;99.90;;;;;;5013297;28;20450;-73
2022/11/20 08:16:02;;;;;;;8.30;6.90;;;9.10;99.90;;;;;;5012923;28;20179;-72
2022/11/20 08:18:27;;;;;;;8.37;4.83;;;9.20;99.90;;;;;;5013007;28;20407;-72
2022/11/20 08:20:53;;;;;;;9.30;7.50;;;9.00;99.90;;;;;;5010982;28;20194;-73
2022/11/20 08:23:18;;;;;;;6.20;5.23;;;9.10;99.90;;;;;;5012226;28;20286;-72
2022/11/20 08:25:49;;;;;;;14.93;12.70;;;8.90;99.90;;;;;;5013306;28;20193;-72
2022/11/20 08:28:15;;;;;;;9.70;5.77;;;8.80;99.90;;;;;;5011736;28;20176;-72
2022/11/20 08:30:40;;;;;;;24.87;18.07;;;8.90;99.90;;;;;;5013010;28;20414;-72
2022/11/20 08:33:08;;;;;;;8.20;7.40;;;9.10;99.90;;;;;;5013430;28;20410;-73
2022/11/20 08:35:35;;;;;;;4.23;2.93;;;8.90;99.90;;;;;;5013179;28;20202;-73
2022/11/20 08:38:02;;;;;;;2.43;2.23;;;9.00;99.90;;;;;;5012099;28;20487;-73
2022/11/20 08:40:28;;;;;;;3.10;2.90;;;8.90;99.90;;;;;;5013463;28;20405;-73
2022/11/20 08:42:53;;;;;;;3.40;2.70;;;8.90;99.90;;;;;;5013247;28;20791;-73
2022/11/20 08:45:19;;;;;;;3.40;3.10;;;9.10;99.90;;;;;;5012798;28;20296;-72
2022/11/20 08:47:45;;;;;;;3.20;2.90;;;8.90;99.90;;;;;;5012992;28;20211;-73
2022/11/20 08:50:12;;;;;;;2.40;2.10;;;8.80;99.90;;;;;;5013033;28;20410;-73
2022/11/20 08:52:39;;;;;;;2.27;2.07;;;8.90;99.90;;;;;;5012391;28;20409;-73
2022/11/20 08:55:06;;;;;;;2.40;2.20;;;9.10;99.90;;;;;;5011464;28;20431;-72
2022/11/20 08:57:35;;;;;;;1.87;1.77;;;9.20;99.90;;;;;;5014028;28;20995;-72
2022/11/20 09:00:03;;;;;;;2.50;2.30;;;9.40;99.90;;;;;;5012610;28;20498;-72
2022/11/20 09:02:28;;;;;;;2.50;1.60;;;9.50;99.90;;;;;;5012490;28;20413;-73
2022/11/20 09:04:54;;;;;;;4.27;3.93;;;9.50;99.90;;;;;;5013793;28;20461;-73
2022/11/20 09:07:20;;;;;;;2.00;1.80;;;9.60;99.90;;;;;;5012468;28;20294;-74
2022/11/20 09:09:46;;;;;;;3.20;2.37;;;9.40;99.90;;;;;;5013100;28;20169;-73
2022/11/20 09:12:11;;;;;;;1.70;1.60;;;9.40;99.90;;;;;;5012800;28;20171;-73
2022/11/20 09:14:37;;;;;;;3.30;2.10;;;9.50;99.90;;;;;;5012398;28;20199;-74
2022/11/20 09:17:02;;;;;;;2.83;1.77;;;9.70;99.90;;;;;;5011448;28;20204;-74
2022/11/20 09:19:28;;;;;;;3.90;3.50;;;9.60;99.90;;;;;;5011041;28;20176;-73
2022/11/20 09:21:54;;;;;;;3.47;1.80;;;9.50;99.90;;;;;;5012333;28;20177;-73
2022/11/20 09:24:20;;;;;;;4.53;3.00;;;9.20;99.90;;;;;;5010782;28;20241;-73
2022/11/20 09:26:46;;;;;;;2.90;2.60;;;9.20;99.90;;;;;;5012363;28;20160;-73
2022/11/20 09:29:12;;;;;;;2.27;2.07;;;9.30;99.90;;;;;;5011021;28;20430;-72
2022/11/20 09:31:38;;;;;;;2.60;1.90;;;9.30;99.90;;;;;;5012134;28;20592;-73
2022/11/20 09:34:03;;;;;;;1.70;1.60;;;9.30;99.90;;;;;;5010630;28;20876;-72
2022/11/20 09:36:29;;;;;;;1.67;1.43;;;9.40;99.90;;;;;;5010559;28;20265;-72
2022/11/20 09:38:56;;;;;;;3.83;1.77;;;9.30;99.90;;;;;;5013693;28;20187;-72
2022/11/20 09:41:54;;;;;;;2.67;1.93;;;9.20;99.90;;;;;;5014730;28;20209;-72
2022/11/20 09:44:28;;;;;;;3.03;2.00;;;9.20;99.90;;;;;;4982296;28;20470;-72
2022/11/20 09:47:03;;;;;;;3.93;3.63;;;9.10;99.90;;;;;;5014752;28;20417;-73
2022/11/20 09:50:03;;;;;;;1.80;1.60;;;9.30;99.90;;;;;;5015987;28;20448;-72
2022/11/20 09:52:44;;;;;;;2.23;2.03;;;9.30;99.90;;;;;;5015195;28;20450;-71
2022/11/20 09:55:12;;;;;;;2.10;1.80;;;9.40;99.90;;;;;;5015735;28;20419;-71
2022/11/20 09:57:42;;;;;;;2.70;1.50;;;9.40;99.90;;;;;;5015581;28;20776;-71
2022/11/20 10:00:13;;;;;;;4.10;2.53;;;9.40;99.90;;;;;;5015392;28;20458;-70
2022/11/20 10:02:52;;;;;;;3.37;3.00;;;9.40;99.90;;;;;;5014787;28;20392;-71
2022/11/20 10:05:47;;;;;;;3.70;3.40;;;9.40;99.90;;;;;;5015345;28;20458;-72
2022/11/20 10:08:16;;;;;;;4.00;3.27;;;9.40;99.90;;;;;;5014815;28;20516;-71
2022/11/20 10:11:28;;;;;;;3.07;2.20;;;9.50;99.90;;;;;;5015376;28;20939;-71
2022/11/20 10:13:57;;;;;;;4.50;4.10;;;9.40;99.90;;;;;;4999425;28;20416;-73
2022/11/20 10:16:53;;;;;;;2.93;2.53;;;9.60;99.90;;;;;;5015241;28;20952;-73
2022/11/20 10:19:21;;;;;;;4.43;3.43;;;9.60;99.90;;;;;;5014943;28;20434;-73
2022/11/20 10:22:03;;;;;;;3.10;2.80;;;9.60;99.90;;;;;;5015078;28;20471;-71
2022/11/20 10:25:10;;;;;;;1.67;1.57;;;9.40;99.90;;;;;;5014584;28;20506;-72
2022/11/20 10:27:57;;;;;;;2.63;2.40;;;9.30;99.90;;;;;;5014698;28;20406;-71
2022/11/20 10:30:25;;;;;;;2.20;1.70;;;9.40;99.90;;;;;;5013479;28;20403;-73
2022/11/20 10:33:06;;;;;;;4.23;3.03;;;9.30;99.90;;;;;;5015099;28;20415;-73
2022/11/20 10:35:31;;;;;;;2.40;1.80;;;9.50;99.90;;;;;;5048963;23;20853;-74
2022/11/20 10:38:05;;;;;;;5.73;3.70;;;9.30;99.90;;;;;;5034736;28;20408;-74
2022/11/20 10:40:39;;;;;;;2.03;1.83;;;9.10;99.90;;;;;;5034466;28;20567;-74
2022/11/20 10:43:13;;;;;;;1.80;1.70;;;9.00;99.90;;;;;;5034990;28;20389;-74
2022/11/20 10:46:10;;;;;;;3.40;3.10;;;8.90;99.90;;;;;;5034863;28;20426;-74
2022/11/20 10:48:38;;;;;;;2.10;2.00;;;9.10;99.90;;;;;;5033426;28;20464;-74
2022/11/20 10:51:19;;;;;;;2.20;1.70;;;9.10;99.90;;;;;;5034494;28;20499;-74
2022/11/20 10:53:55;;;;;;;1.90;1.80;;;9.10;99.90;;;;;;5034365;28;20477;-74
2022/11/20 10:56:45;;;;;;;2.97;1.90;;;9.10;99.90;;;;;;5037281;28;20432;-74
2022/11/20 10:59:30;;;;;;;2.20;1.47;;;9.20;99.90;;;;;;5033726;28;20790;-74
2022/11/20 11:01:56;;;;;;;1.87;1.77;;;9.20;99.90;;;;;;5034935;28;20452;-75
2022/11/20 11:04:43;;;;;;;1.57;1.13;;;9.10;99.90;;;;;;5034659;28;20831;-74
2022/11/20 11:07:39;;;;;;;4.03;2.50;;;9.30;99.90;;;;;;5034600;28;20178;-74
2022/11/20 11:10:41;;;;;;;2.90;2.70;;;9.50;99.90;;;;;;5022216;28;20904;-74
2022/11/20 11:13:18;;;;;;;1.63;1.40;;;9.60;99.90;;;;;;5033566;28;20449;-74
2022/11/20 11:15:44;;;;;;;2.17;1.97;;;9.30;99.90;;;;;;5034347;28;20437;-74
2022/11/20 11:18:10;;;;;;;2.40;2.20;;;9.20;99.90;;;;;;5034602;28;20744;-75
2022/11/20 11:20:37;;;;;;;3.60;2.77;;;9.40;99.90;;;;;;5034271;28;20677;-74
2022/11/20 11:23:04;;;;;;;3.73;2.07;;;9.30;99.90;;;;;;5033550;28;20414;-74
2022/11/20 11:25:34;;;;;;;3.20;2.47;;;9.40;99.90;;;;;;5033972;28;20860;-74
2022/11/20 11:28:17;;;;;;;1.67;1.57;;;9.70;99.90;;;;;;5034057;28;20440;-74
2022/11/20 11:30:44;;;;;;;2.37;1.90;;;9.90;99.90;;;;;;5034073;28;20386;-75
2022/11/20 11:33:20;;;;;;;2.10;1.90;;;10.30;99.90;;;;;;5034162;28;20421;-75
2022/11/20 11:35:53;;;;;;;2.33;1.97;;;11.40;99.90;;;;;;5033799;28;20472;-74
2022/11/20 11:38:43;;;;;;;2.63;1.50;;;13.10;99.90;;;;;;5032604;28;20433;-74
2022/11/20 11:41:16;;;;;;;1.70;1.40;;;14.30;99.90;;;;;;5032176;28;20424;-74
2022/11/20 11:46:40;;;;;;;2.93;1.80;;;16.50;99.90;;;;;;5034324;28;20434;-74
2022/11/20 11:49:09;;;;;;;1.80;1.70;;;17.90;99.90;;;;;;5034051;28;20827;-74
2022/11/20 11:51:39;;;;;;;1.53;1.43;;;18.60;99.90;;;;;;5034048;28;20405;-74
2022/11/20 11:54:15;;;;;;;5.73;1.80;;;18.70;99.90;;;;;;5033398;28;20443;-74
2022/11/20 11:56:41;;;;;;;3.67;1.67;;;18.20;98.70;;;;;;5033506;28;20425;-74
2022/11/20 11:59:15;;;;;;;2.23;1.47;;;17.50;99.30;;;;;;5033579;28;20930;-74
2022/11/20 12:01:57;;;;;;;4.90;1.67;;;17.00;99.90;;;;;;5033515;28;20511;-74
2022/11/20 12:04:41;;;;;;;2.73;1.30;;;15.60;99.90;;;;;;5033291;28;20459;-73
2022/11/20 12:07:30;;;;;;;2.60;1.50;;;14.90;99.90;;;;;;5033187;28;20432;-74
2022/11/20 12:09:58;;;;;;;1.47;1.30;;;13.30;99.90;;;;;;5033582;28;20388;-73
2022/11/20 12:12:31;;;;;;;4.70;2.77;;;12.60;99.90;;;;;;5032403;28;20424;-73
2022/11/20 12:14:58;;;;;;;3.93;1.73;;;11.90;99.90;;;;;;5032109;28;21011;-73
2022/11/20 12:17:24;;;;;;;2.53;1.57;;;12.40;99.90;;;;;;5033643;28;20410;-74
2022/11/20 12:19:49;;;;;;;1.43;1.17;;;13.30;99.90;;;;;;5032311;28;20478;-74
2022/11/20 12:22:46;;;;;;;2.60;1.53;;;14.40;99.90;;;;;;5033283;28;20178;-74
2022/11/20 12:25:29;;;;;;;3.33;1.67;;;16.10;99.90;;;;;;5033563;28;20209;-74
2022/11/20 12:28:13;;;;;;;2.10;1.17;;;17.40;99.20;;;;;;5033325;28;20429;-75
2022/11/20 12:30:50;;;;;;;3.30;1.20;;;17.90;97.90;;;;;;5033910;28;20385;-75
2022/11/20 12:33:47;;;;;;;2.33;1.57;;;16.00;98.80;;;;;;5034000;28;20384;-74
2022/11/20 12:36:15;;;;;;;2.33;1.17;;;14.20;99.90;;;;;;5032554;28;20529;-75
2022/11/20 12:38:59;;;;;;;3.27;1.43;;;13.40;99.90;;;;;;5031946;28;20415;-74
2022/11/20 12:45:10;;;;;;;2.63;1.33;;;11.70;99.90;;;;;;5034019;28;20460;-74
2022/11/20 12:47:57;;;;;;;4.37;1.53;;;11.80;99.90;;;;;;5033866;28;20903;-74
2022/11/20 12:50:31;;;;;;;1.73;1.40;;;11.70;99.90;;;;;;5042731;28;20828;-74
2022/11/20 12:52:58;;;;;;;3.40;1.37;;;11.70;99.90;;;;;;5037783;28;20910;-75
2022/11/20 12:55:42;;;;;;;3.03;2.00;;;11.60;99.90;;;;;;5034665;28;20421;-75
2022/11/20 12:58:38;;;;;;;2.00;0.90;;;11.20;99.90;;;;;;5038522;28;20404;-75
2022/11/20 13:01:39;;;;;;;1.47;1.00;;;11.20;99.90;;;;;;5041232;28;20389;-75
2022/11/20 13:04:30;;;;;;;2.90;1.00;;;11.00;99.90;;;;;;5034494;28;20884;-75
2022/11/20 13:06:56;;;;;;;1.73;1.20;;;10.80;99.90;;;;;;5034376;28;20396;-75
2022/11/20 13:09:23;;;;;;;1.70;0.90;;;10.90;99.90;;;;;;5034193;28;20494;-75
2022/11/20 13:11:51;;;;;;;3.60;1.40;;;10.90;99.90;;;;;;5035697;28;20167;-75
2022/11/20 13:14:37;;;;;;;1.00;0.90;;;11.10;99.90;;;;;;5039746;28;20453;-74
2022/11/20 13:17:24;;;;;;;1.30;1.00;;;11.10;99.90;;;;;;5039006;28;20865;-73
2022/11/20 13:19:53;;;;;;;1.43;1.30;;;11.10;99.90;;;;;;5037314;28;20391;-74
2022/11/20 13:22:49;;;;;;;1.40;1.20;;;11.00;99.90;;;;;;5037081;28;20851;-74
2022/11/20 13:25:32;;;;;;;1.20;1.10;;;10.90;99.90;;;;;;5036001;28;20479;-73
2022/11/20 13:28:00;;;;;;;1.67;1.10;;;11.00;99.90;;;;;;5036319;28;20888;-72